Time;durP1;ratioP1;P1;durP2;ratioP2;P2;SDS_P1;SDS_P2;PMS_P1;PMS_P2;Temp;Humidity;BMP_temperature;BMP_pressure;BME280_temperature;BME280_humidity;BME280_pressure;Samples;Min_cycle;Max_cycle;Signal;HPM_P1;HPM_P2
2022/09/05 00:02:04;;;;;;;2.80;1.57;;;16.50;1.00;;;;;;5093413;28;20745;-72
2022/09/05 00:04:48;;;;;;;3.67;1.60;;;16.50;1.00;;;;;;5093100;28;20418;-71
2022/09/05 00:07:53;;;;;;;2.17;1.90;;;16.50;1.00;;;;;;5092673;28;20415;-70
2022/09/05 00:10:44;;;;;;;1.97;1.73;;;16.40;1.00;;;;;;5094068;28;20399;-71
2022/09/05 00:13:23;;;;;;;1.80;1.70;;;16.40;1.00;;;;;;5093105;28;20399;-71
2022/09/05 00:15:55;;;;;;;1.93;1.83;;;16.40;1.00;;;;;;5074805;28;20446;-70
2022/09/05 00:18:48;;;;;;;2.97;1.63;;;16.30;1.00;;;;;;5092633;28;20504;-72
2022/09/05 00:21:23;;;;;;;1.90;1.73;;;16.30;1.00;;;;;;5093130;28;20403;-71
2022/09/05 00:24:24;;;;;;;3.73;1.80;;;16.30;1.00;;;;;;5093271;28;20391;-73
2022/09/05 00:31:05;;;;;;;1.60;1.50;;;16.30;1.00;;;;;;5092722;28;20875;-73
2022/09/05 00:33:54;;;;;;;1.77;1.67;;;16.30;1.00;;;;;;5093100;28;20425;-73
2022/09/05 00:36:54;;;;;;;1.77;1.67;;;16.40;1.00;;;;;;5092561;28;20407;-74
2022/09/05 00:39:39;;;;;;;3.43;1.57;;;16.40;1.00;;;;;;5074481;28;20955;-73
2022/09/05 00:42:14;;;;;;;2.13;1.93;;;16.50;1.00;;;;;;5075125;28;20400;-70
2022/09/05 00:45:01;;;;;;;3.57;1.90;;;16.50;1.00;;;;;;5093055;28;20395;-71
2022/09/05 00:51:04;;;;;;;3.83;1.83;;;16.60;1.00;;;;;;5011094;28;20485;-72
2022/09/05 00:53:50;;;;;;;2.43;1.50;;;16.60;1.00;;;;;;5092825;28;20388;-70
2022/09/05 00:56:52;;;;;;;1.80;1.70;;;16.60;1.00;;;;;;5092608;28;20403;-71
2022/09/05 00:59:56;;;;;;;1.70;1.60;;;16.60;1.00;;;;;;5092877;28;20450;-73
2022/09/05 01:02:31;;;;;;;1.87;1.77;;;16.60;1.00;;;;;;5093054;28;20469;-72
2022/09/05 01:05:03;;;;;;;2.83;2.20;;;16.60;1.00;;;;;;5077830;28;20517;-70
2022/09/05 01:07:47;;;;;;;2.40;1.90;;;16.50;1.00;;;;;;5095107;28;20841;-71
2022/09/05 01:10:18;;;;;;;2.10;1.67;;;16.50;1.00;;;;;;5096401;28;20387;-71
2022/09/05 01:13:15;;;;;;;2.27;2.00;;;16.50;1.00;;;;;;5096572;28;20434;-73
2022/09/05 01:16:11;;;;;;;2.80;1.30;;;16.50;1.00;;;;;;5096162;28;20423;-73
2022/09/05 01:18:46;;;;;;;8.00;2.27;;;16.50;1.00;;;;;;5096268;28;20879;-72
2022/09/05 01:21:39;;;;;;;1.73;1.63;;;16.50;1.00;;;;;;5096194;28;20482;-73
2022/09/05 01:24:33;;;;;;;1.80;1.70;;;16.50;1.00;;;;;;5096147;28;20387;-70
2022/09/05 01:26:59;;;;;;;3.50;1.83;;;16.50;1.00;;;;;;5095599;28;20961;-73
2022/09/05 01:29:47;;;;;;;2.33;1.53;;;16.70;1.00;;;;;;5078122;28;20431;-72
2022/09/05 01:32:28;;;;;;;2.63;1.53;;;16.60;1.00;;;;;;5095979;28;20400;-73
2022/09/05 01:35:38;;;;;;;3.00;1.70;;;16.50;1.00;;;;;;5077799;28;20414;-73
2022/09/05 01:38:20;;;;;;;2.07;1.97;;;16.60;1.00;;;;;;5076892;28;20512;-71
2022/09/05 01:41:22;;;;;;;2.13;1.90;;;16.60;1.00;;;;;;5095583;28;20865;-73
2022/09/05 01:44:11;;;;;;;1.67;1.57;;;16.60;1.00;;;;;;5095656;28;20391;-71
2022/09/05 01:46:59;;;;;;;1.63;1.50;;;16.60;1.00;;;;;;5095580;28;20404;-71
2022/09/05 01:49:35;;;;;;;1.57;1.47;;;16.60;1.00;;;;;;5077395;28;20432;-71
2022/09/05 01:52:23;;;;;;;3.00;2.13;;;16.70;1.00;;;;;;5077566;28;20407;-71
2022/09/05 01:55:15;;;;;;;1.80;1.70;;;16.60;1.00;;;;;;5095639;28;20442;-73
2022/09/05 01:58:04;;;;;;;1.80;1.70;;;16.60;1.00;;;;;;5056171;28;20562;-70
2022/09/05 02:00:48;;;;;;;2.90;2.70;;;16.60;1.00;;;;;;5095422;28;20431;-71
2022/09/05 02:03:33;;;;;;;4.00;1.90;;;16.60;1.00;;;;;;5095455;28;20411;-72
2022/09/05 02:06:01;;;;;;;4.07;2.43;;;16.50;1.00;;;;;;5095067;28;20427;-75
2022/09/05 02:08:51;;;;;;;5.40;2.70;;;16.50;1.00;;;;;;5095115;28;20506;-70
2022/09/05 02:11:17;;;;;;;2.07;1.50;;;16.50;1.00;;;;;;5095259;28;20396;-70
2022/09/05 02:14:03;;;;;;;2.63;2.03;;;16.50;1.00;;;;;;5095262;28;20478;-71
2022/09/05 02:16:44;;;;;;;2.97;1.97;;;16.50;1.00;;;;;;5093369;28;20423;-71
2022/09/05 02:19:16;;;;;;;1.73;1.63;;;16.50;1.00;;;;;;5094752;28;20455;-70
2022/09/05 02:21:57;;;;;;;4.60;1.77;;;16.40;1.00;;;;;;5095014;28;20392;-70
2022/09/05 02:24:34;;;;;;;1.77;1.60;;;16.30;1.00;;;;;;5094894;28;20402;-73
2022/09/05 02:27:22;;;;;;;2.10;1.90;;;16.40;1.00;;;;;;5094174;28;20403;-72
2022/09/05 02:30:07;;;;;;;3.33;2.03;;;16.40;1.00;;;;;;5094848;28;20415;-73
2022/09/05 02:32:56;;;;;;;2.13;1.87;;;16.40;1.00;;;;;;5094794;28;20415;-72
2022/09/05 02:35:26;;;;;;;3.27;2.20;;;16.40;1.00;;;;;;5094116;28;20415;-70
2022/09/05 02:38:10;;;;;;;2.50;2.30;;;16.40;1.00;;;;;;5093892;28;20828;-70
2022/09/05 02:40:36;;;;;;;4.80;2.00;;;16.40;1.00;;;;;;5076524;28;20772;-73
2022/09/05 02:43:05;;;;;;;2.53;2.10;;;16.30;1.00;;;;;;5094761;28;20396;-72
2022/09/05 02:45:58;;;;;;;2.17;2.07;;;16.30;1.00;;;;;;5094658;28;20173;-71
2022/09/05 02:48:51;;;;;;;2.17;1.97;;;16.40;1.00;;;;;;5094474;28;20431;-72
2022/09/05 02:51:36;;;;;;;12.20;2.87;;;16.30;1.00;;;;;;5076584;28;20426;-71
2022/09/05 02:54:12;;;;;;;3.00;1.80;;;16.20;1.00;;;;;;5093889;28;20477;-70
2022/09/05 02:57:19;;;;;;;2.70;2.50;;;16.20;1.00;;;;;;5075624;28;20418;-72
2022/09/05 03:00:10;;;;;;;1.73;1.63;;;16.20;1.00;;;;;;5075961;28;20963;-72
2022/09/05 03:02:48;;;;;;;2.50;2.23;;;16.20;1.00;;;;;;5094079;28;20403;-70
2022/09/05 03:05:31;;;;;;;3.80;2.90;;;16.10;1.00;;;;;;5094508;28;20806;-70
2022/09/05 03:08:40;;;;;;;3.10;2.10;;;16.10;1.00;;;;;;5093322;28;20430;-71
2022/09/05 03:11:33;;;;;;;6.00;3.37;;;16.10;1.00;;;;;;5054753;28;20403;-72
2022/09/05 03:14:48;;;;;;;2.50;2.30;;;16.10;1.00;;;;;;5076338;28;20412;-72
2022/09/05 03:17:32;;;;;;;2.50;2.20;;;16.10;1.00;;;;;;5093322;28;20477;-72
2022/09/05 03:20:20;;;;;;;3.07;2.60;;;16.00;1.00;;;;;;5094006;28;20391;-70
2022/09/05 03:23:32;;;;;;;3.47;2.60;;;16.00;1.00;;;;;;5093754;28;20485;-70
2022/09/05 03:26:36;;;;;;;3.00;2.40;;;16.00;1.00;;;;;;5093824;28;20403;-74
2022/09/05 03:29:32;;;;;;;2.50;2.30;;;16.00;1.00;;;;;;5075334;28;20427;-72
2022/09/05 03:32:33;;;;;;;3.87;3.10;;;16.10;1.00;;;;;;5093756;28;20498;-70
2022/09/05 03:35:11;;;;;;;2.87;2.57;;;16.00;1.00;;;;;;5064737;28;20918;-72
2022/09/05 03:37:56;;;;;;;6.73;2.47;;;16.00;1.00;;;;;;5092990;28;20488;-70
2022/09/05 03:41:10;;;;;;;2.60;2.43;;;16.10;1.00;;;;;;5075611;28;20414;-73
2022/09/05 03:43:46;;;;;;;3.30;3.00;;;16.10;1.00;;;;;;5093601;28;20541;-73
2022/09/05 03:46:21;;;;;;;3.77;2.87;;;16.10;1.00;;;;;;5092931;28;20395;-71
2022/09/05 03:49:11;;;;;;;3.50;3.10;;;16.10;1.00;;;;;;5092941;28;20422;-71
2022/09/05 03:52:06;;;;;;;3.20;2.93;;;16.10;1.00;;;;;;5093559;28;20454;-72
2022/09/05 03:55:00;;;;;;;4.40;4.00;;;16.00;1.00;;;;;;5093382;28;20407;-72
2022/09/05 03:57:37;;;;;;;4.10;3.77;;;15.90;1.00;;;;;;5092692;28;20435;-73
2022/09/05 04:00:19;;;;;;;5.27;4.00;;;15.90;1.00;;;;;;5093453;28;20900;-73
2022/09/05 04:03:17;;;;;;;4.10;3.00;;;15.90;1.00;;;;;;5093296;28;20400;-73
2022/09/05 04:05:51;;;;;;;3.60;2.60;;;15.90;1.00;;;;;;5092994;28;20406;-72
2022/09/05 04:09:00;;;;;;;4.93;3.13;;;15.90;1.00;;;;;;5092798;28;20924;-70
2022/09/05 04:11:44;;;;;;;4.23;3.23;;;15.90;1.00;;;;;;5054565;28;20415;-72
2022/09/05 04:14:28;;;;;;;3.53;3.33;;;15.90;1.00;;;;;;5093298;28;20404;-72
2022/09/05 04:17:19;;;;;;;4.00;3.30;;;15.90;1.00;;;;;;5092641;28;20753;-70
2022/09/05 04:19:58;;;;;;;4.30;2.87;;;15.90;1.00;;;;;;5093160;28;20415;-70
2022/09/05 04:22:36;;;;;;;5.13;3.60;;;15.90;1.00;;;;;;5093299;28;20400;-70
2022/09/05 04:25:38;;;;;;;4.63;3.60;;;15.90;1.00;;;;;;5092721;28;20763;-73
2022/09/05 04:28:18;;;;;;;5.70;4.23;;;15.90;1.00;;;;;;5092273;28;20419;-70
2022/09/05 04:31:02;;;;;;;6.50;3.70;;;15.90;1.00;;;;;;5093260;28;20844;-71
2022/09/05 04:33:58;;;;;;;8.87;3.50;;;15.90;1.00;;;;;;5074969;28;20446;-70
2022/09/05 04:36:32;;;;;;;3.83;3.53;;;15.90;1.00;;;;;;5092558;28;20927;-73
2022/09/05 04:39:23;;;;;;;4.20;3.83;;;15.90;1.00;;;;;;5094699;28;20513;-70
2022/09/05 04:42:03;;;;;;;4.23;3.07;;;15.90;1.00;;;;;;5096859;28;20487;-71
2022/09/05 04:44:39;;;;;;;4.10;3.77;;;15.90;1.00;;;;;;5096750;28;20399;-70
2022/09/05 04:47:34;;;;;;;4.37;3.40;;;15.90;1.00;;;;;;5096072;28;20457;-70
2022/09/05 04:53:40;;;;;;;3.90;3.60;;;16.00;1.00;;;;;;4936975;29;20418;-72
2022/09/05 04:56:57;;;;;;;;;;;;;;;;;;;;;
2022/09/05 05:02:57;;;;;;;4.60;3.57;;;16.00;1.00;;;;;;4898612;29;20493;-70
2022/09/05 05:05:29;;;;;;;4.27;3.40;;;16.00;1.00;;;;;;4955784;29;20501;-71
2022/09/05 05:08:18;;;;;;;4.23;3.83;;;16.00;1.00;;;;;;5020620;28;20438;-72
2022/09/05 05:11:11;;;;;;;4.00;3.70;;;16.00;1.00;;;;;;5070578;28;20508;-69
2022/09/05 05:13:55;;;;;;;3.93;3.63;;;16.00;1.00;;;;;;5093554;28;20411;-72
2022/09/05 05:16:31;;;;;;;7.00;3.70;;;16.10;1.00;;;;;;5095691;28;20429;-69
2022/09/05 05:19:15;;;;;;;7.90;4.13;;;16.10;1.00;;;;;;5096210;28;20458;-69
2022/09/05 05:21:47;;;;;;;3.20;3.00;;;16.10;1.00;;;;;;5077456;28;20511;-69
2022/09/05 05:24:16;;;;;;;4.37;4.00;;;16.10;1.00;;;;;;5096205;28;20441;-69
2022/09/05 05:27:04;;;;;;;4.13;3.77;;;16.20;1.00;;;;;;5077315;28;20411;-72
2022/09/05 05:29:59;;;;;;;10.70;4.93;;;16.30;1.00;;;;;;5096120;28;20757;-70
2022/09/05 05:33:07;;;;;;;5.70;3.77;;;16.30;1.00;;;;;;5059870;28;20737;-69
2022/09/05 05:35:33;;;;;;;5.20;4.13;;;16.20;1.00;;;;;;5094154;28;20490;-71
2022/09/05 05:38:15;;;;;;;4.50;4.10;;;16.20;1.00;;;;;;5095136;28;20451;-69
2022/09/05 05:40:53;;;;;;;4.03;3.80;;;16.30;1.00;;;;;;5095346;28;20418;-71
2022/09/05 05:43:25;;;;;;;4.97;4.07;;;16.40;1.00;;;;;;5095891;28;20432;-72
2022/09/05 05:45:59;;;;;;;5.10;3.63;;;16.40;1.00;;;;;;5095532;28;20407;-72
2022/09/05 05:48:46;;;;;;;;;;;;;;;;;;;;;
2022/09/05 05:51:29;;;;;;;4.73;4.27;;;16.50;1.00;;;;;;5094390;28;20422;-69
2022/09/05 05:54:36;;;;;;;8.23;4.70;;;16.50;1.00;;;;;;5095373;28;20416;-69
2022/09/05 05:57:27;;;;;;;6.23;3.90;;;16.50;1.00;;;;;;5089199;28;20416;-70
2022/09/05 06:00:07;;;;;;;4.30;3.90;;;16.60;1.00;;;;;;5095355;28;20403;-69
2022/09/05 06:02:59;;;;;;;4.97;3.93;;;16.70;1.00;;;;;;5095514;28;20495;-73
2022/09/05 06:05:44;;;;;;;4.37;3.57;;;16.70;1.00;;;;;;5077142;28;20859;-69
2022/09/05 06:08:35;;;;;;;7.10;6.60;;;16.70;1.00;;;;;;5094553;28;20431;-72
2022/09/05 06:11:22;;;;;;;4.80;4.40;;;16.70;1.00;;;;;;5095152;28;20412;-70
2022/09/05 06:14:10;;;;;;;3.87;3.57;;;16.80;1.00;;;;;;5095095;28;20450;-69
2022/09/05 06:18:00;;;;;;;;;;;;;;;;;;;;;
2022/09/05 06:21:00;;;;;;;4.00;3.70;;;16.90;1.00;;;;;;4973735;28;20792;-70
2022/09/05 06:24:02;;;;;;;4.80;4.00;;;17.00;1.00;;;;;;4989147;28;20509;-72
2022/09/05 06:26:56;;;;;;;4.07;3.53;;;17.00;1.00;;;;;;5094253;28;20760;-73
2022/09/05 06:29:41;;;;;;;5.03;3.73;;;17.10;1.00;;;;;;5094882;28;20764;-69
2022/09/05 06:32:40;;;;;;;4.40;4.10;;;17.20;1.00;;;;;;5094213;28;20478;-73
2022/09/05 06:35:43;;;;;;;4.13;3.80;;;17.30;1.00;;;;;;5094725;28;20399;-73
2022/09/05 06:38:12;;;;;;;4.60;3.97;;;17.30;1.00;;;;;;5093935;28;20447;-69
2022/09/05 06:40:57;;;;;;;4.80;3.93;;;17.40;1.00;;;;;;5094756;28;20810;-72
2022/09/05 06:43:34;;;;;;;9.20;4.40;;;17.40;1.00;;;;;;5094692;28;20400;-68
2022/09/05 06:46:31;;;;;;;4.10;3.40;;;17.50;1.00;;;;;;5094226;28;20410;-74
2022/09/05 06:49:11;;;;;;;5.70;4.40;;;17.60;1.00;;;;;;5094078;28;20518;-72
2022/09/05 06:51:50;;;;;;;5.17;3.40;;;17.60;1.00;;;;;;5094343;28;20827;-70
2022/09/05 06:54:25;;;;;;;4.20;3.90;;;17.70;1.00;;;;;;5076478;28;20510;-69
2022/09/05 06:57:18;;;;;;;3.97;3.50;;;17.80;1.00;;;;;;5093679;28;20494;-73
2022/09/05 06:59:47;;;;;;;8.37;4.63;;;17.90;1.00;;;;;;5076082;28;20490;-73
2022/09/05 07:02:49;;;;;;;8.20;3.90;;;18.00;1.00;;;;;;5093910;28;20891;-68
2022/09/05 07:05:33;;;;;;;4.33;3.70;;;18.20;1.00;;;;;;5093841;28;20402;-69
2022/09/05 07:08:38;;;;;;;4.07;3.77;;;18.40;1.00;;;;;;5075186;28;20972;-72
2022/09/05 07:11:20;;;;;;;4.30;3.90;;;18.50;1.00;;;;;;5090226;28;20426;-69
2022/09/05 07:13:54;;;;;;;3.53;3.33;;;18.50;1.00;;;;;;5094143;28;20915;-69
2022/09/05 07:16:44;;;;;;;7.80;3.23;;;18.60;1.00;;;;;;5093414;28;20431;-69
2022/09/05 07:19:30;;;;;;;4.20;3.90;;;18.50;1.00;;;;;;5093894;28;20522;-69
2022/09/05 07:22:17;;;;;;;9.60;3.53;;;18.50;1.00;;;;;;5094109;28;20911;-70
2022/09/05 07:24:49;;;;;;;4.10;3.70;;;18.50;1.00;;;;;;5093516;28;20712;-70
2022/09/05 07:27:37;;;;;;;3.80;3.30;;;18.50;1.00;;;;;;5093306;28;20529;-74
2022/09/05 07:30:06;;;;;;;3.83;3.53;;;18.50;1.00;;;;;;5093982;28;20392;-69
2022/09/05 07:32:41;;;;;;;7.40;3.87;;;18.60;1.00;;;;;;5076281;28;20435;-70
2022/09/05 07:35:24;;;;;;;4.60;4.20;;;18.70;1.00;;;;;;5093850;28;20452;-73
2022/09/05 07:38:05;;;;;;;6.70;4.07;;;18.80;1.00;;;;;;5092845;28;20500;-73
2022/09/05 07:40:35;;;;;;;15.13;4.00;;;18.90;1.00;;;;;;5093744;28;20435;-72
2022/09/05 07:43:13;;;;;;;5.63;3.23;;;19.00;1.00;;;;;;5075089;28;20418;-69
2022/09/05 07:46:18;;;;;;;4.37;4.00;;;19.10;1.00;;;;;;5093657;28;20400;-70
2022/09/05 07:49:01;;;;;;;3.50;3.20;;;19.20;1.00;;;;;;5093149;28;20442;-69
2022/09/05 07:51:32;;;;;;;4.57;3.10;;;19.30;1.00;;;;;;5093477;28;20741;-74
2022/09/05 07:54:05;;;;;;;3.50;3.20;;;19.30;1.00;;;;;;5093327;28;20912;-72
2022/09/05 07:56:58;;;;;;;4.33;3.93;;;19.20;1.00;;;;;;5092854;28;20429;-70
2022/09/05 07:59:28;;;;;;;4.10;3.33;;;19.30;1.00;;;;;;5093281;28;20994;-69
2022/09/05 08:01:55;;;;;;;7.40;3.57;;;19.30;1.00;;;;;;5092963;28;20395;-71
2022/09/05 08:04:26;;;;;;;3.70;3.40;;;19.20;1.00;;;;;;5093280;28;20399;-74
2022/09/05 08:06:55;;;;;;;3.73;3.43;;;19.30;1.00;;;;;;5074523;28;20768;-70
2022/09/05 08:09:29;;;;;;;3.63;3.37;;;19.30;1.00;;;;;;5093250;28;21038;-69
2022/09/05 08:12:00;;;;;;;3.20;2.93;;;19.40;1.00;;;;;;5093416;28;20430;-68
2022/09/05 08:14:42;;;;;;;5.70;3.17;;;19.40;1.00;;;;;;5095959;28;20757;-73
2022/09/05 08:17:14;;;;;;;3.67;3.20;;;19.40;1.00;;;;;;5096437;28;20411;-74
2022/09/05 08:19:58;;;;;;;5.03;3.67;;;19.50;1.00;;;;;;5097314;28;20499;-73
2022/09/05 08:22:30;;;;;;;4.50;3.30;;;19.60;1.00;;;;;;5097014;28;20403;-74
2022/09/05 08:25:13;;;;;;;3.50;3.20;;;19.60;1.00;;;;;;5097353;28;20868;-70
2022/09/05 08:28:08;;;;;;;3.43;3.23;;;19.70;1.00;;;;;;5096569;28;20404;-69
2022/09/05 08:30:49;;;;;;;4.00;3.03;;;19.80;1.00;;;;;;5097364;28;20423;-73
2022/09/05 08:33:25;;;;;;;5.10;3.40;;;19.90;1.00;;;;;;5097214;28;20408;-69
2022/09/05 08:36:01;;;;;;;3.23;2.93;;;20.00;1.00;;;;;;5078815;28;20903;-69
2022/09/05 08:38:31;;;;;;;4.80;3.17;;;20.10;1.00;;;;;;5096981;28;20514;-70
2022/09/05 08:41:19;;;;;;;3.23;2.93;;;20.10;1.00;;;;;;5096551;28;20757;-68
2022/09/05 08:44:24;;;;;;;4.57;3.30;;;20.20;1.00;;;;;;5096966;28;20415;-73
2022/09/05 08:47:03;;;;;;;3.17;2.80;;;20.30;1.00;;;;;;5096510;28;20395;-69
2022/09/05 08:49:33;;;;;;;4.90;3.27;;;20.50;1.00;;;;;;5096774;28;20451;-74
2022/09/05 08:52:30;;;;;;;3.00;2.80;;;20.80;1.00;;;;;;5096860;28;20411;-74
2022/09/05 08:58:29;;;;;;;7.60;3.77;;;21.20;1.00;;;;;;5095917;28;20490;-74
2022/09/05 09:01:15;;;;;;;2.73;2.53;;;21.40;1.00;;;;;;5096219;28;20408;-69
2022/09/05 09:04:08;;;;;;;6.60;2.80;;;21.60;1.00;;;;;;5096505;28;20441;-74
2022/09/05 09:07:06;;;;;;;4.00;2.87;;;21.80;1.00;;;;;;5095893;28;20435;-69
2022/09/05 09:09:58;;;;;;;8.80;3.53;;;21.90;1.00;;;;;;5096315;28;20419;-74
2022/09/05 09:16:28;;;;;;;8.57;3.10;;;22.20;1.00;;;;;;5096187;28;20934;-70
2022/09/05 09:19:14;;;;;;;2.77;2.57;;;22.40;1.00;;;;;;5095604;28;20996;-70
2022/09/05 09:21:53;;;;;;;2.83;2.57;;;22.70;1.00;;;;;;5096326;28;20554;-70
2022/09/05 09:24:32;;;;;;;5.40;2.90;;;22.90;1.00;;;;;;5096225;28;20391;-70
2022/09/05 09:27:13;;;;;;;4.00;2.70;;;22.90;1.00;;;;;;5095438;28;20406;-74
2022/09/05 09:29:41;;;;;;;3.63;2.43;;;23.20;1.00;;;;;;5095989;28;20419;-68
2022/09/05 09:32:13;;;;;;;5.53;3.43;;;23.10;1.00;;;;;;5077899;28;20776;-73
2022/09/05 09:35:02;;;;;;;3.40;2.70;;;22.90;1.00;;;;;;5095881;28;20399;-67
2022/09/05 09:37:59;;;;;;;4.63;2.57;;;22.60;1.00;;;;;;5094573;28;20404;-69
2022/09/05 09:41:06;;;;;;;3.20;2.90;;;22.30;1.00;;;;;;5078013;28;20930;-69
2022/09/05 09:44:10;;;;;;;4.80;2.17;;;22.60;1.00;;;;;;5050571;28;20465;-74
2022/09/05 09:46:47;;;;;;;2.77;2.57;;;23.00;1.00;;;;;;5095043;28;20775;-73
2022/09/05 09:49:47;;;;;;;2.87;2.57;;;23.00;1.00;;;;;;5095580;28;20481;-74
2022/09/05 09:52:18;;;;;;;12.53;3.40;;;23.00;1.00;;;;;;5091216;28;20420;-76
2022/09/05 09:55:00;;;;;;;7.13;3.00;;;23.10;1.00;;;;;;5095231;28;20406;-74
2022/09/05 09:57:56;;;;;;;3.30;2.63;;;23.10;1.00;;;;;;5094668;28;20404;-73
2022/09/05 10:00:23;;;;;;;4.50;2.43;;;23.00;1.00;;;;;;5095533;28;20404;-73
2022/09/05 10:03:23;;;;;;;3.23;2.43;;;22.70;1.00;;;;;;5095379;28;20795;-75
2022/09/05 10:06:16;;;;;;;5.80;2.93;;;22.50;1.00;;;;;;5095123;28;20412;-68
2022/09/05 10:09:06;;;;;;;5.17;2.77;;;22.30;1.00;;;;;;5095444;28;21007;-68
2022/09/05 10:11:59;;;;;;;2.87;2.57;;;22.20;1.00;;;;;;5094647;28;20408;-68
2022/09/05 10:14:44;;;;;;;4.03;3.50;;;22.30;1.00;;;;;;5095096;28;20789;-68
2022/09/05 10:17:34;;;;;;;2.77;2.57;;;22.40;1.00;;;;;;5076206;28;20446;-70
2022/09/05 10:20:44;;;;;;;4.47;3.53;;;22.60;1.00;;;;;;5076503;28;20469;-70
2022/09/05 10:23:25;;;;;;;3.57;2.77;;;23.00;1.00;;;;;;5095635;28;20404;-69
2022/09/05 10:26:23;;;;;;;3.90;3.23;;;23.40;1.00;;;;;;5076631;28;20404;-74
2022/09/05 10:29:11;;;;;;;3.50;3.20;;;23.60;1.00;;;;;;5076893;28;20928;-75
2022/09/05 10:31:56;;;;;;;3.57;2.80;;;23.50;1.00;;;;;;5094964;28;20946;-74
2022/09/05 10:34:57;;;;;;;2.73;2.30;;;23.20;1.00;;;;;;5094974;28;20403;-74
2022/09/05 10:37:42;;;;;;;3.63;2.90;;;23.10;1.00;;;;;;5093261;28;20409;-69
2022/09/05 10:40:12;;;;;;;3.07;2.80;;;23.00;1.00;;;;;;5094754;28;20458;-69
2022/09/05 10:42:46;;;;;;;2.93;2.73;;;23.10;1.00;;;;;;5094344;28;20403;-70
2022/09/05 10:45:44;;;;;;;6.43;3.00;;;23.80;1.00;;;;;;5094651;28;20406;-75
2022/09/05 10:48:40;;;;;;;3.73;3.33;;;24.70;1.00;;;;;;5093808;28;20488;-74
2022/09/05 10:51:40;;;;;;;4.73;3.03;;;24.60;1.00;;;;;;5094456;28;20435;-74
2022/09/05 10:54:24;;;;;;;3.00;2.80;;;24.80;1.00;;;;;;5094364;28;20506;-74
2022/09/05 10:57:05;;;;;;;5.23;3.10;;;25.40;1.00;;;;;;5093961;28;20411;-68
2022/09/05 10:59:52;;;;;;;3.70;2.60;;;25.90;1.00;;;;;;5094202;28;20812;-75
2022/09/05 11:02:26;;;;;;;2.83;2.60;;;26.50;1.00;;;;;;5093895;28;20542;-74
2022/09/05 11:05:11;;;;;;;3.43;2.90;;;26.70;1.00;;;;;;5094540;28;20407;-69
2022/09/05 11:07:57;;;;;;;3.47;2.50;;;26.50;1.00;;;;;;5075382;28;20446;-76
2022/09/05 11:10:33;;;;;;;3.27;2.70;;;26.60;1.00;;;;;;5094078;28;20404;-75
2022/09/05 11:13:15;;;;;;;4.03;2.93;;;26.30;1.00;;;;;;5094191;28;20404;-74
2022/09/05 11:15:56;;;;;;;5.60;3.20;;;25.80;1.00;;;;;;5094100;28;20403;-74
2022/09/05 11:18:37;;;;;;;2.57;2.40;;;25.20;1.00;;;;;;5093176;28;20462;-75
2022/09/05 11:21:31;;;;;;;7.10;3.33;;;24.80;1.00;;;;;;5093684;28;20400;-75
2022/09/05 11:24:27;;;;;;;2.80;2.60;;;24.70;1.00;;;;;;5094089;28;20395;-69
2022/09/05 11:27:13;;;;;;;4.50;2.90;;;24.60;1.00;;;;;;5093176;28;20486;-69
2022/09/05 11:29:47;;;;;;;3.13;2.93;;;24.70;1.00;;;;;;5075929;28;20450;-69
2022/09/05 11:32:43;;;;;;;5.83;3.43;;;24.70;1.00;;;;;;5093867;28;20392;-69
2022/09/05 11:35:23;;;;;;;3.00;2.80;;;24.50;1.00;;;;;;5075486;28;20883;-74
2022/09/05 11:37:58;;;;;;;5.70;2.67;;;24.00;1.00;;;;;;5092910;28;20451;-75
2022/09/05 11:40:39;;;;;;;4.70;2.70;;;23.80;1.00;;;;;;5093610;28;20387;-75
2022/09/05 11:43:23;;;;;;;8.13;3.63;;;23.60;1.00;;;;;;5075566;28;20491;-74
2022/09/05 11:46:10;;;;;;;4.53;3.30;;;23.60;1.00;;;;;;5075403;28;20791;-75
2022/09/05 11:49:14;;;;;;;5.00;3.10;;;23.90;1.00;;;;;;5092585;28;20465;-75
2022/09/05 11:52:26;;;;;;;8.60;3.60;;;24.30;1.00;;;;;;5093377;28;20411;-75
2022/09/05 11:54:58;;;;;;;11.17;3.30;;;24.50;1.00;;;;;;5093026;28;20399;-75
2022/09/05 11:57:47;;;;;;;8.70;3.30;;;24.60;1.00;;;;;;5092620;28;20465;-75
2022/09/05 12:00:18;;;;;;;11.30;4.17;;;24.70;1.00;;;;;;5075551;28;20411;-74
2022/09/05 12:03:23;;;;;;;8.90;3.40;;;24.50;1.00;;;;;;5093323;28;20437;-69
2022/09/05 12:06:20;;;;;;;3.77;2.80;;;24.70;1.00;;;;;;5091203;28;20414;-75
2022/09/05 12:08:46;;;;;;;7.13;3.10;;;24.70;1.00;;;;;;5075180;28;20440;-74
2022/09/05 12:14:54;;;;;;;16.40;5.00;;;24.00;1.00;;;;;;5092843;28;20750;-71
2022/09/05 12:17:35;;;;;;;4.80;3.50;;;24.20;1.00;;;;;;5074612;28;20458;-76
2022/09/05 12:20:12;;;;;;;5.00;3.40;;;24.20;1.00;;;;;;5075582;28;20484;-74
2022/09/05 12:22:55;;;;;;;3.43;3.13;;;24.30;1.00;;;;;;5093304;28;20399;-75
2022/09/05 12:25:52;;;;;;;13.27;4.50;;;24.30;1.00;;;;;;5093752;28;20396;-70
2022/09/05 12:28:36;;;;;;;4.20;3.10;;;24.20;1.00;;;;;;5092688;28;20443;-77
2022/09/05 12:31:37;;;;;;;10.30;3.37;;;24.20;1.00;;;;;;5075054;28;20948;-71
2022/09/05 12:34:08;;;;;;;5.13;3.23;;;24.20;1.00;;;;;;5075183;28;20499;-76
2022/09/05 12:36:49;;;;;;;5.47;3.20;;;24.20;1.00;;;;;;5074518;28;20418;-77
2022/09/05 12:39:41;;;;;;;6.37;3.50;;;24.20;1.00;;;;;;5093018;28;20958;-70
2022/09/05 12:42:39;;;;;;;6.63;4.20;;;24.20;1.00;;;;;;5075613;28;20450;-68
2022/09/05 12:45:07;;;;;;;4.80;3.27;;;24.40;1.00;;;;;;5074953;28;20418;-70
2022/09/05 12:47:53;;;;;;;4.13;3.73;;;24.40;1.00;;;;;;5091928;28;20414;-71
2022/09/05 12:50:21;;;;;;;5.67;3.40;;;24.50;1.00;;;;;;5092834;28;20469;-74
2022/09/05 12:53:08;;;;;;;7.67;4.07;;;24.50;1.00;;;;;;5074823;28;20449;-74
2022/09/05 12:55:43;;;;;;;3.60;3.40;;;24.30;1.00;;;;;;5092998;28;20482;-70
2022/09/05 12:58:29;;;;;;;4.03;2.97;;;24.20;1.00;;;;;;5092340;28;20454;-75
2022/09/05 13:01:22;;;;;;;7.17;3.97;;;24.10;1.00;;;;;;5077893;28;20498;-75
2022/09/05 13:03:56;;;;;;;7.23;3.90;;;24.40;1.00;;;;;;5070170;28;20414;-76
2022/09/05 13:06:27;;;;;;;3.33;2.97;;;24.60;1.00;;;;;;5077621;28;20407;-73
2022/09/05 13:09:00;;;;;;;4.30;4.00;;;24.70;1.00;;;;;;5078200;28;20432;-74
2022/09/05 13:11:29;;;;;;;3.73;3.43;;;24.90;1.00;;;;;;5096346;28;20396;-75
2022/09/05 13:14:05;;;;;;;4.57;3.03;;;25.10;1.00;;;;;;5078185;28;20849;-72
2022/09/05 13:16:34;;;;;;;5.43;3.47;;;25.10;1.00;;;;;;5095683;28;20418;-72
2022/09/05 13:19:07;;;;;;;3.80;3.50;;;25.00;1.00;;;;;;5096081;28;20459;-74
2022/09/05 13:21:44;;;;;;;3.80;3.50;;;25.10;1.00;;;;;;5096235;28;20404;-71
2022/09/05 13:24:16;;;;;;;6.80;3.60;;;25.30;1.00;;;;;;5096160;28;20406;-75
2022/09/05 13:27:05;;;;;;;11.83;3.70;;;25.40;1.00;;;;;;5095323;28;20450;-72
2022/09/05 13:29:55;;;;;;;3.80;3.50;;;25.40;1.00;;;;;;5095904;28;20431;-76
2022/09/05 13:32:37;;;;;;;4.60;4.20;;;25.00;1.00;;;;;;5078279;28;20803;-71
2022/09/05 13:35:16;;;;;;;5.80;3.30;;;24.50;1.00;;;;;;5096118;28;20941;-73
2022/09/05 13:37:57;;;;;;;4.47;3.47;;;24.20;1.00;;;;;;5076738;28;20801;-76
2022/09/05 13:40:47;;;;;;;4.47;3.53;;;24.20;1.00;;;;;;5077674;28;20408;-72
2022/09/05 13:43:20;;;;;;;4.80;3.50;;;23.90;1.00;;;;;;5077133;28;20416;-72
2022/09/05 13:45:55;;;;;;;4.80;3.93;;;23.90;1.00;;;;;;5077756;28;20415;-75
2022/09/05 13:48:57;;;;;;;4.27;3.87;;;23.80;1.00;;;;;;5095259;28;20418;-76
2022/09/05 13:51:40;;;;;;;5.63;3.93;;;23.70;1.00;;;;;;5095636;28;20411;-73
2022/09/05 13:54:29;;;;;;;3.43;3.13;;;23.60;1.00;;;;;;5095704;28;20395;-72
2022/09/05 13:57:28;;;;;;;5.57;3.63;;;23.60;1.00;;;;;;5076802;28;20422;-69
2022/09/05 14:00:21;;;;;;;3.60;3.30;;;23.70;1.00;;;;;;5077432;28;20423;-74
2022/09/05 14:03:08;;;;;;;5.43;3.53;;;23.50;1.00;;;;;;5041724;28;20408;-70
2022/09/05 14:05:47;;;;;;;4.57;4.17;;;23.30;1.00;;;;;;5095352;28;20419;-74
2022/09/05 14:08:33;;;;;;;5.47;4.27;;;23.20;1.00;;;;;;5076529;28;20509;-70
2022/09/05 14:11:30;;;;;;;3.67;3.47;;;23.20;1.00;;;;;;5076143;28;20408;-70
2022/09/05 14:14:24;;;;;;;4.10;3.70;;;23.10;1.00;;;;;;5094974;28;20403;-75
2022/09/05 14:17:10;;;;;;;6.67;4.70;;;23.20;1.00;;;;;;5094517;28;20454;-71
2022/09/05 14:23:01;;;;;;;4.00;3.20;;;23.20;1.00;;;;;;5094630;28;20909;-70
2022/09/05 14:25:33;;;;;;;4.43;3.80;;;23.00;1.00;;;;;;5076684;28;20399;-70
2022/09/05 14:28:02;;;;;;;3.30;3.00;;;23.00;1.00;;;;;;5093573;28;20435;-73
2022/09/05 14:30:45;;;;;;;3.67;3.37;;;22.90;1.00;;;;;;5094447;28;20962;-70
2022/09/05 14:33:14;;;;;;;6.40;3.90;;;22.90;1.00;;;;;;5076291;28;20408;-71
2022/09/05 14:35:50;;;;;;;6.50;4.13;;;22.80;1.00;;;;;;5094445;28;20795;-74
2022/09/05 14:38:59;;;;;;;5.40;3.90;;;22.70;1.00;;;;;;5075581;28;20486;-73
2022/09/05 14:42:12;;;;;;;3.33;3.13;;;22.70;1.00;;;;;;5075620;28;20502;-73
2022/09/05 14:44:59;;;;;;;5.93;4.03;;;22.50;1.00;;;;;;4995777;28;20426;-73
2022/09/05 14:48:21;;;;;;;4.33;3.83;;;22.30;1.00;;;;;;5011391;28;20748;-74
2022/09/05 14:51:16;;;;;;;6.23;3.80;;;22.30;1.00;;;;;;4994320;28;20415;-70
2022/09/05 14:53:54;;;;;;;5.83;3.60;;;22.10;1.00;;;;;;5012180;28;20502;-70
2022/09/05 14:56:53;;;;;;;4.17;3.20;;;21.90;1.00;;;;;;5049890;28;20415;-70
2022/09/05 14:59:19;;;;;;;3.57;3.27;;;22.00;1.00;;;;;;5058232;28;20463;-69
2022/09/05 15:02:18;;;;;;;4.50;3.17;;;22.10;1.00;;;;;;5075890;28;20427;-73
2022/09/05 15:04:50;;;;;;;3.43;3.00;;;22.00;1.00;;;;;;5076490;28;20170;-70